createdAt,value
2019-03-28T00:01:58.628Z,43.21
2019-03-28T00:04:24.556Z,42.96
2019-03-28T00:06:50.508Z,43.11
2019-03-28T00:09:16.340Z,43.25
2019-03-28T00:11:42.229Z,43.67
2019-03-28T00:14:08.052Z,44.13
2019-03-28T00:16:33.899Z,44.02
2019-03-28T00:18:59.787Z,44.22
2019-03-28T00:21:26.290Z,44.18
2019-03-28T00:23:59.891Z,44.43
2019-03-28T00:26:30.558Z,44.57
2019-03-28T00:28:53.609Z,44.89
2019-03-28T00:32:09.074Z,44.75
2019-03-28T00:34:35.361Z,44.85
2019-03-28T00:37:01.403Z,44.57
2019-03-28T00:39:27.379Z,44.36
2019-03-28T00:41:53.217Z,44.58
2019-03-28T00:44:19.160Z,44.96
2019-03-28T00:46:45.741Z,45.09
2019-03-28T00:49:11.940Z,45.16
2019-03-28T00:51:37.771Z,44.83
2019-03-28T00:54:03.645Z,44.99
2019-03-28T00:56:42.701Z,44.77
2019-03-28T00:58:57.379Z,44.51
2019-03-28T01:01:23.292Z,44.80
2019-03-28T01:03:49.125Z,44.89
2019-03-28T01:06:15.104Z,44.95
2019-03-28T01:08:41.094Z,44.87
2019-03-28T01:11:06.934Z,45.19
2019-03-28T01:13:32.770Z,45.03
2019-03-28T01:15:58.718Z,45.49
2019-03-28T01:18:24.613Z,45.00
2019-03-28T01:20:51.217Z,45.05
2019-03-28T01:23:17.305Z,45.09
2019-03-28T01:25:43.185Z,45.04
2019-03-28T01:28:09.005Z,45.26
2019-03-28T01:30:34.941Z,45.04
2019-03-28T01:33:01.723Z,45.26
2019-03-28T01:35:27.571Z,45.36
2019-03-28T01:37:54.369Z,44.86
2019-03-28T01:40:20.514Z,44.83
2019-03-28T01:42:46.361Z,44.83
2019-03-28T01:45:12.685Z,45.10
2019-03-28T01:47:38.677Z,44.97
2019-03-28T01:50:04.807Z,45.08
2019-03-28T01:52:30.681Z,45.24
2019-03-28T01:54:56.529Z,44.88
2019-03-28T01:57:22.380Z,45.72
2019-03-28T01:59:48.260Z,46.03
2019-03-28T02:02:14.085Z,46.29
2019-03-28T02:04:40.000Z,46.10
2019-03-28T02:07:05.885Z,46.29
2019-03-28T02:09:32.326Z,46.41
2019-03-28T02:11:58.355Z,46.10
2019-03-28T02:14:24.230Z,46.50
2019-03-28T02:16:50.173Z,46.80
2019-03-28T02:19:16.018Z,46.69
2019-03-28T02:21:41.847Z,46.82
2019-03-28T02:24:07.776Z,46.89
2019-03-28T02:26:34.243Z,46.98
2019-03-28T02:29:00.301Z,47.12
2019-03-28T02:31:26.138Z,46.69
2019-03-28T02:33:51.984Z,47.04
2019-03-28T02:36:17.870Z,46.81
2019-03-28T02:38:43.713Z,47.21
2019-03-28T02:41:09.567Z,46.98
2019-03-28T02:43:35.520Z,47.03
2019-03-28T02:46:01.349Z,46.97
2019-03-28T02:48:27.800Z,47.16
2019-03-28T02:50:53.949Z,46.77
2019-03-28T02:53:19.845Z,47.27
2019-03-28T02:55:45.689Z,47.18
2019-03-28T02:58:11.540Z,47.49
2019-03-28T03:00:37.391Z,47.57
2019-03-28T03:03:03.430Z,47.71
2019-03-28T03:05:29.406Z,47.38
2019-03-28T03:07:55.248Z,47.54
2019-03-28T03:10:21.116Z,47.82
2019-03-28T03:12:46.949Z,48.06
2019-03-28T03:15:13.392Z,47.97
2019-03-28T03:17:39.378Z,47.53
2019-03-28T03:20:05.924Z,47.41
2019-03-28T03:22:31.775Z,47.51
2019-03-28T03:24:57.676Z,47.65
2019-03-28T03:27:23.506Z,48.13
2019-03-28T03:29:49.446Z,47.89
2019-03-28T03:32:15.309Z,47.67
2019-03-28T03:34:41.200Z,47.95
2019-03-28T03:37:07.190Z,48.16
2019-03-28T03:39:33.017Z,48.21
2019-03-28T03:41:59.056Z,47.99
2019-03-28T03:44:24.959Z,48.46
2019-03-28T03:46:50.788Z,48.46
2019-03-28T03:49:18.658Z,48.43
2019-03-28T03:51:46.624Z,48.40
2019-03-28T03:54:12.519Z,48.07
2019-03-28T03:56:38.356Z,48.44
2019-03-28T03:59:04.297Z,48.46
2019-03-28T04:01:30.244Z,48.73
2019-03-28T04:03:56.297Z,49.05
2019-03-28T04:06:22.225Z,49.19
2019-03-28T04:08:48.103Z,49.74
2019-03-28T04:11:14.112Z,49.80
2019-03-28T04:13:40.033Z,49.99
2019-03-28T04:16:06.016Z,50.27
2019-03-28T04:18:31.946Z,50.27
2019-03-28T04:20:58.432Z,50.45
2019-03-28T04:23:24.335Z,50.57
2019-03-28T04:25:50.294Z,50.95
2019-03-28T04:28:30.846Z,51.00
2019-03-28T04:30:44.005Z,50.97
2019-03-28T04:33:09.905Z,50.92
2019-03-28T04:35:35.800Z,50.96
2019-03-28T04:38:01.705Z,51.18
2019-03-28T04:40:27.601Z,51.35
2019-03-28T04:42:53.495Z,51.50
2019-03-28T04:45:19.533Z,51.08
2019-03-28T04:47:45.450Z,50.99
2019-03-28T04:50:11.902Z,51.01
2019-03-28T04:52:37.819Z,51.08
2019-03-28T04:55:05.230Z,51.23
2019-03-28T04:57:31.237Z,51.25
2019-03-28T04:59:57.151Z,51.49
2019-03-28T05:02:23.033Z,51.46
2019-03-28T05:04:49.057Z,51.58
2019-03-28T05:07:14.942Z,51.69
2019-03-28T05:09:40.865Z,51.65
2019-03-28T05:12:06.738Z,52.02
2019-03-28T05:14:32.636Z,52.10
2019-03-28T05:16:58.575Z,52.14
2019-03-28T05:19:24.483Z,52.26
2019-03-28T05:21:50.403Z,51.56
2019-03-28T05:24:16.336Z,51.56
2019-03-28T05:26:42.241Z,51.97
2019-03-28T05:29:08.149Z,51.65
2019-03-28T05:31:34.412Z,50.94
2019-03-28T05:34:00.495Z,51.33
2019-03-28T05:36:26.692Z,51.58
2019-03-28T05:38:52.612Z,51.42
2019-03-28T05:41:18.511Z,51.49
2019-03-28T05:43:45.552Z,51.62
2019-03-28T05:46:11.702Z,52.00
2019-03-28T05:48:37.650Z,52.32
2019-03-28T05:51:03.761Z,51.96
2019-03-28T05:53:29.609Z,51.77
2019-03-28T05:55:55.444Z,51.46
2019-03-28T05:58:21.356Z,51.68
2019-03-28T06:00:51.150Z,51.39
2019-03-28T06:03:14.996Z,51.34
2019-03-28T06:05:40.863Z,51.63
2019-03-28T06:08:06.699Z,51.36
2019-03-28T06:10:32.562Z,50.81
2019-03-28T06:12:58.401Z,51.20
2019-03-28T06:15:26.142Z,51.54
2019-03-28T06:17:52.127Z,51.40
2019-03-28T06:20:18.055Z,51.40
2019-03-28T06:22:43.921Z,50.92
2019-03-28T06:25:09.900Z,51.14
2019-03-28T06:27:35.815Z,50.66
2019-03-28T06:30:02.610Z,50.54
2019-03-28T06:32:41.993Z,50.63
2019-03-28T06:34:56.285Z,50.16
2019-03-28T06:37:22.312Z,49.98
2019-03-28T06:39:48.169Z,49.96
2019-03-28T06:42:14.007Z,49.88
2019-03-28T06:44:39.886Z,49.47
2019-03-28T06:47:05.709Z,49.31
2019-03-28T06:49:31.654Z,49.30
2019-03-28T06:51:57.504Z,49.03
2019-03-28T06:54:24.463Z,48.89
2019-03-28T06:56:50.523Z,48.65
2019-03-28T06:59:16.563Z,48.55
2019-03-28T07:01:42.394Z,48.50
2019-03-28T07:04:08.358Z,48.05
2019-03-28T07:06:34.324Z,47.97
2019-03-28T07:09:00.138Z,48.03
2019-03-28T07:11:26.089Z,48.40
2019-03-28T07:13:51.927Z,48.48
2019-03-28T07:16:20.924Z,48.06
2019-03-28T07:18:45.550Z,49.73
2019-03-28T07:21:11.569Z,47.60
2019-03-28T07:23:37.446Z,47.26
2019-03-28T07:26:03.323Z,47.25
2019-03-28T07:28:29.189Z,47.25
2019-03-28T07:30:55.126Z,47.28
2019-03-28T07:33:21.145Z,46.49
2019-03-28T07:35:47.072Z,46.01
2019-03-28T07:38:12.899Z,45.86
2019-03-28T07:40:38.840Z,45.86
2019-03-28T07:43:04.762Z,45.62
2019-03-28T07:45:30.747Z,44.70
2019-03-28T07:47:56.587Z,44.04
2019-03-28T07:50:22.597Z,43.67
2019-03-28T07:52:48.568Z,43.38
2019-03-28T07:55:16.478Z,42.71
2019-03-28T07:57:42.312Z,41.86
2019-03-28T08:00:10.132Z,41.79
2019-03-28T08:02:35.959Z,41.43
2019-03-28T08:05:03.820Z,41.34
2019-03-28T08:07:29.774Z,41.05
2019-03-28T08:09:55.606Z,40.56
2019-03-28T08:12:23.228Z,40.73
2019-03-28T08:14:49.195Z,40.03
2019-03-28T08:17:15.093Z,39.43
2019-03-28T08:19:41.681Z,38.96
2019-03-28T08:22:07.606Z,38.55
2019-03-28T08:24:33.487Z,38.33
2019-03-28T08:26:59.310Z,38.43
2019-03-28T08:29:25.259Z,38.09
2019-03-28T08:31:52.762Z,38.31
2019-03-28T08:34:18.885Z,37.90
2019-03-28T08:36:45.633Z,37.69
2019-03-28T08:39:11.535Z,37.54
2019-03-28T08:41:37.381Z,37.67
2019-03-28T08:44:03.432Z,37.33
2019-03-28T08:46:29.435Z,37.57
2019-03-28T08:48:55.254Z,37.39
2019-03-28T08:51:21.243Z,37.14
2019-03-28T08:53:47.097Z,37.14
2019-03-28T08:56:12.955Z,37.18
2019-03-28T08:58:38.779Z,37.08
2019-03-28T09:01:05.884Z,37.13
2019-03-28T09:03:32.107Z,36.70
2019-03-28T09:05:57.942Z,37.21
2019-03-28T09:08:23.810Z,36.77
2019-03-28T09:10:49.640Z,36.29
2019-03-28T09:13:15.601Z,36.96
2019-03-28T09:15:44.114Z,36.55
2019-03-28T09:18:09.732Z,36.41
2019-03-28T09:20:35.586Z,36.27
2019-03-28T09:23:01.562Z,35.86
2019-03-28T09:25:27.480Z,36.24
2019-03-28T09:27:53.412Z,36.79
2019-03-28T09:30:48.095Z,35.81
2019-03-28T09:33:05.433Z,36.37
2019-03-28T09:35:31.504Z,36.52
2019-03-28T09:37:57.501Z,37.15
2019-03-28T09:40:23.461Z,36.75
2019-03-28T09:42:49.498Z,35.93
2019-03-28T09:45:15.579Z,35.71
2019-03-28T09:47:41.508Z,36.02
2019-03-28T09:50:07.875Z,35.58
2019-03-28T09:52:33.735Z,35.54
2019-03-28T09:54:59.662Z,35.57
2019-03-28T09:57:25.500Z,35.28
2019-03-28T09:59:51.548Z,35.21
2019-03-28T10:02:17.426Z,35.61
2019-03-28T10:04:43.254Z,35.30
2019-03-28T10:07:09.156Z,34.60
2019-03-28T10:09:35.450Z,34.80
2019-03-28T10:12:01.474Z,34.94
2019-03-28T10:14:27.442Z,34.42
2019-03-28T10:16:53.276Z,35.97
2019-03-28T10:19:19.329Z,35.32
2019-03-28T10:21:45.255Z,35.18
2019-03-28T10:24:11.623Z,34.32
2019-03-28T10:26:37.737Z,34.40
2019-03-28T10:29:03.731Z,34.73
2019-03-28T10:31:29.749Z,34.59
2019-03-28T10:33:55.696Z,35.75
2019-03-28T10:36:21.575Z,35.81
2019-03-28T10:38:47.470Z,35.44
2019-03-28T10:41:13.382Z,35.85
2019-03-28T10:43:39.352Z,35.97
2019-03-28T10:46:05.363Z,35.74
2019-03-28T10:48:31.409Z,35.38
2019-03-28T10:50:57.395Z,34.31
2019-03-28T10:53:29.825Z,34.91
2019-03-28T10:55:54.362Z,35.41
2019-03-28T10:58:20.482Z,35.11
2019-03-28T11:00:46.496Z,34.55
2019-03-28T11:03:12.469Z,35.13
2019-03-28T11:05:38.422Z,34.71
2019-03-28T11:08:04.430Z,35.18
2019-03-28T11:10:30.734Z,34.71
2019-03-28T11:12:56.752Z,34.93
2019-03-28T11:15:22.856Z,35.03
2019-03-28T11:17:48.933Z,34.68
2019-03-28T11:20:15.047Z,33.95
2019-03-28T11:22:41.022Z,34.41
2019-03-28T11:25:07.152Z,34.07
2019-03-28T11:27:33.258Z,33.55
2019-03-28T11:29:59.547Z,33.27
2019-03-28T11:32:25.656Z,32.22
2019-03-28T11:34:51.657Z,32.68
2019-03-28T11:37:26.068Z,32.09
2019-03-28T11:39:46.641Z,31.58
2019-03-28T11:42:12.895Z,33.10
2019-03-28T11:44:38.763Z,34.09
2019-03-28T11:47:04.608Z,33.76
2019-03-28T11:49:30.522Z,34.49
2019-03-28T11:51:56.565Z,34.32
2019-03-28T11:54:22.529Z,34.15
2019-03-28T11:56:48.538Z,33.40
2019-03-28T11:59:14.484Z,33.40
2019-03-28T12:01:40.412Z,33.79
2019-03-28T12:04:06.335Z,34.00
2019-03-28T12:06:32.368Z,32.94
2019-03-28T12:08:58.210Z,32.83
2019-03-28T12:11:24.102Z,32.99
2019-03-28T12:13:50.041Z,33.81
2019-03-28T12:16:16.995Z,32.90
2019-03-28T12:18:43.167Z,33.56
2019-03-28T12:21:09.237Z,32.43
2019-03-28T12:23:35.128Z,31.69
2019-03-28T12:26:01.150Z,31.43
2019-03-28T12:28:27.223Z,30.12
2019-03-28T12:30:53.115Z,31.87
2019-03-28T12:33:19.318Z,29.96
2019-03-28T12:35:45.184Z,30.92
2019-03-28T12:38:11.089Z,31.49
2019-03-28T12:40:37.036Z,32.08
2019-03-28T12:43:03.050Z,29.04
2019-03-28T12:45:29.035Z,30.24
2019-03-28T12:47:54.876Z,29.73
2019-03-28T12:50:20.870Z,28.65
2019-03-28T12:52:46.816Z,29.86
2019-03-28T12:55:12.962Z,30.91
2019-03-28T12:57:38.891Z,29.83
2019-03-28T13:00:06.850Z,28.73
2019-03-28T13:02:33.017Z,27.66
2019-03-28T13:04:59.165Z,27.16
2019-03-28T13:07:25.607Z,26.46
2019-03-28T13:09:51.713Z,23.30
2019-03-28T13:12:17.651Z,20.38
2019-03-28T13:14:43.462Z,22.20
2019-03-28T13:17:09.453Z,20.93
2019-03-28T13:19:35.366Z,19.94
2019-03-28T13:22:02.435Z,22.23
2019-03-28T13:24:28.684Z,22.28
2019-03-28T13:26:54.579Z,21.44
2019-03-28T13:29:20.696Z,20.92
2019-03-28T13:31:46.616Z,22.22
2019-03-28T13:34:12.462Z,20.11
2019-03-28T13:36:38.391Z,20.55
2019-03-28T13:39:05.192Z,20.08
2019-03-28T13:41:31.308Z,20.25
2019-03-28T13:43:57.504Z,20.06
2019-03-28T13:46:23.437Z,19.96
2019-03-28T13:48:49.285Z,21.88
2019-03-28T13:51:15.145Z,21.92
2019-03-28T13:53:41.075Z,21.14
2019-03-28T13:56:07.003Z,22.65
2019-03-28T13:58:32.953Z,17.65
2019-03-28T14:00:59.008Z,17.62
2019-03-28T14:03:26.730Z,16.58
2019-03-28T14:05:52.664Z,18.25
2019-03-28T14:08:18.609Z,17.94
2019-03-28T14:10:44.783Z,19.38
2019-03-28T14:13:10.715Z,21.64
2019-03-28T14:15:36.649Z,22.67
2019-03-28T14:18:02.786Z,19.84
2019-03-28T14:20:28.796Z,22.81
2019-03-28T14:22:54.760Z,23.31
2019-03-28T14:25:20.825Z,24.35
2019-03-28T14:27:46.940Z,23.39
2019-03-28T14:30:12.982Z,22.95
2019-03-28T14:32:52.121Z,22.84
2019-03-28T14:35:06.868Z,21.00
2019-03-28T14:37:32.901Z,23.15
2019-03-28T14:39:59.102Z,24.25
2019-03-28T14:42:25.063Z,24.37
2019-03-28T14:44:50.993Z,21.38
2019-03-28T14:47:16.894Z,19.99
2019-03-28T14:49:42.891Z,20.53
2019-03-28T14:52:09.104Z,20.27
2019-03-28T14:54:35.165Z,22.24
2019-03-28T14:57:01.786Z,19.40
2019-03-28T14:59:32.687Z,20.17
2019-03-28T15:01:55.729Z,21.19
2019-03-28T15:04:21.630Z,20.13
2019-03-28T15:06:47.678Z,20.85
2019-03-28T15:09:13.553Z,21.40
2019-03-28T15:11:39.569Z,19.58
2019-03-28T15:14:05.587Z,22.50
2019-03-28T15:16:31.489Z,19.83
2019-03-28T15:18:57.405Z,19.08
2019-03-28T15:21:23.463Z,20.10
2019-03-28T15:23:49.329Z,20.02
2019-03-28T15:26:15.321Z,24.02
2019-03-28T15:28:41.229Z,23.62
2019-03-28T15:31:07.339Z,20.70
2019-03-28T15:33:39.317Z,20.04
2019-03-28T15:36:01.125Z,18.31
2019-03-28T15:38:27.065Z,21.64
2019-03-28T15:40:52.980Z,19.00
2019-03-28T15:43:18.903Z,21.06
2019-03-28T15:45:44.832Z,21.34
2019-03-28T15:48:11.002Z,19.62
2019-03-28T15:50:36.895Z,22.81
2019-03-28T15:53:02.925Z,23.05
2019-03-28T15:55:28.911Z,21.51
2019-03-28T15:57:54.815Z,22.72
2019-03-28T16:00:20.951Z,25.28
2019-03-28T16:02:46.905Z,24.76
2019-03-28T16:05:12.890Z,24.46
2019-03-28T16:07:38.741Z,24.99
2019-03-28T16:10:09.751Z,25.60
2019-03-28T16:12:35.848Z,25.87
2019-03-28T16:15:03.147Z,27.01
2019-03-28T16:17:29.247Z,25.81
2019-03-28T16:19:55.235Z,27.99
2019-03-28T16:22:21.214Z,27.46
2019-03-28T16:24:47.128Z,26.86
2019-03-28T16:27:13.136Z,27.34
2019-03-28T16:29:39.198Z,27.01
2019-03-28T16:32:05.196Z,25.13
2019-03-28T16:34:31.082Z,25.82
2019-03-28T16:36:57.069Z,26.62
2019-03-28T16:39:22.992Z,25.90
2019-03-28T16:41:49.629Z,26.73
2019-03-28T16:44:15.954Z,24.73
2019-03-28T16:46:41.970Z,28.08
2019-03-28T16:49:08.287Z,28.57
2019-03-28T16:51:34.486Z,27.81
2019-03-28T16:54:01.599Z,27.52
2019-03-28T16:56:28.087Z,29.23
2019-03-28T16:58:55.526Z,29.64
2019-03-28T17:01:21.985Z,30.34
2019-03-28T17:03:47.895Z,29.18
2019-03-28T17:06:13.986Z,27.97
2019-03-28T17:08:44.077Z,29.66
2019-03-28T17:11:12.176Z,30.96
2019-03-28T17:13:38.141Z,31.65
2019-03-28T17:16:04.284Z,31.62
2019-03-28T17:18:31.274Z,31.96
2019-03-28T17:20:57.619Z,32.54
2019-03-28T17:23:23.683Z,32.31
2019-03-28T17:25:49.612Z,32.71
2019-03-28T17:28:15.712Z,32.76
2019-03-28T17:30:41.956Z,32.88
2019-03-28T17:33:07.863Z,32.97
2019-03-28T17:35:33.773Z,33.08
2019-03-28T17:37:59.815Z,32.85
2019-03-28T17:40:25.747Z,33.24
2019-03-28T17:42:51.698Z,33.23
2019-03-28T17:45:17.615Z,33.23
2019-03-28T17:47:43.493Z,33.41
2019-03-28T17:50:09.877Z,33.49
2019-03-28T17:52:36.021Z,33.85
2019-03-28T17:55:03.676Z,33.79
2019-03-28T17:57:29.867Z,33.92
2019-03-28T17:59:55.765Z,33.84
2019-03-28T18:02:21.875Z,33.88
2019-03-28T18:04:48.417Z,34.12
2019-03-28T18:07:14.343Z,34.06
2019-03-28T18:09:40.438Z,34.10
2019-03-28T18:12:06.251Z,34.04
2019-03-28T18:14:32.224Z,34.21
2019-03-28T18:16:59.558Z,34.50
2019-03-28T18:19:25.559Z,34.49
2019-03-28T18:22:02.766Z,34.64
2019-03-28T18:24:19.766Z,34.71
2019-03-28T18:26:45.751Z,34.75
2019-03-28T18:29:11.690Z,34.92
2019-03-28T18:31:49.688Z,35.16
2019-03-28T18:34:05.520Z,35.36
2019-03-28T18:36:31.372Z,35.41
2019-03-28T18:38:57.459Z,35.44
2019-03-28T18:41:23.566Z,36.12
2019-03-28T18:43:49.861Z,37.43
2019-03-28T18:46:15.978Z,38.42
2019-03-28T18:48:42.030Z,38.49
2019-03-28T18:51:08.144Z,39.23
2019-03-28T18:53:34.106Z,39.57
2019-03-28T18:56:00.034Z,39.75
2019-03-28T18:58:25.955Z,39.90
2019-03-28T19:00:52.256Z,40.13
2019-03-28T19:03:18.291Z,40.29
2019-03-28T19:05:44.247Z,40.08
2019-03-28T19:08:10.179Z,40.34
2019-03-28T19:10:36.244Z,40.13
2019-03-28T19:13:04.618Z,40.24
2019-03-28T19:15:30.252Z,40.57
2019-03-28T19:17:56.160Z,40.70
2019-03-28T19:20:22.120Z,41.14
2019-03-28T19:22:50.177Z,41.25
2019-03-28T19:25:16.213Z,41.19
2019-03-28T19:27:42.215Z,41.43
2019-03-28T19:30:09.203Z,41.57
2019-03-28T19:32:35.279Z,42.09
2019-03-28T19:35:03.369Z,42.55
2019-03-28T19:37:30.029Z,42.97
2019-03-28T19:39:55.864Z,43.46
2019-03-28T19:42:22.655Z,43.69
2019-03-28T19:44:49.806Z,43.90
2019-03-28T19:47:15.634Z,43.85
2019-03-28T19:49:41.706Z,43.87
2019-03-28T19:52:07.694Z,43.93
2019-03-28T19:54:33.821Z,43.97
2019-03-28T19:56:59.861Z,44.03
2019-03-28T19:59:26.027Z,44.43
2019-03-28T20:01:52.271Z,44.44
2019-03-28T20:04:18.089Z,44.47
2019-03-28T20:06:44.206Z,44.54
2019-03-28T20:09:16.208Z,44.40
2019-03-28T20:11:39.020Z,44.41
2019-03-28T20:14:05.203Z,44.20
2019-03-28T20:16:31.161Z,44.25
2019-03-28T20:18:57.147Z,44.11
2019-03-28T20:21:23.128Z,43.96
2019-03-28T20:23:49.215Z,43.88
2019-03-28T20:26:15.137Z,43.81
2019-03-28T20:28:41.192Z,43.86
2019-03-28T20:31:07.280Z,43.98
2019-03-28T20:33:33.316Z,43.98
2019-03-28T20:36:18.857Z,44.26
2019-03-28T20:38:27.272Z,44.28
2019-03-28T20:40:53.234Z,44.67
2019-03-28T20:43:19.165Z,44.74
2019-03-28T20:45:45.397Z,44.86
2019-03-28T20:48:11.432Z,44.52
2019-03-28T20:50:37.444Z,44.90
2019-03-28T20:53:03.549Z,44.91
2019-03-28T20:55:29.548Z,44.91
2019-03-28T21:00:36.750Z,44.03
2019-03-28T21:03:03.397Z,44.03
2019-03-28T21:05:30.918Z,44.15
2019-03-28T21:07:57.033Z,44.13
2019-03-28T21:10:23.991Z,44.27
2019-03-28T21:12:50.350Z,44.30
2019-03-28T21:15:16.317Z,44.67
2019-03-28T21:17:42.290Z,45.22
2019-03-28T21:20:08.441Z,45.59
2019-03-28T21:22:34.385Z,45.78
2019-03-28T21:25:00.381Z,45.87
2019-03-28T21:27:26.287Z,46.24
2019-03-28T21:29:52.389Z,46.02
2019-03-28T21:32:18.895Z,46.01
2019-03-28T21:34:45.030Z,46.39
2019-03-28T21:37:11.194Z,46.38
2019-03-28T21:39:39.945Z,46.81
2019-03-28T21:42:07.208Z,46.61
2019-03-28T21:44:33.063Z,46.44
2019-03-28T21:46:59.105Z,46.52
2019-03-28T21:49:24.975Z,46.50
2019-03-28T21:51:50.967Z,46.72
2019-03-28T21:54:16.914Z,46.93
2019-03-28T21:56:42.876Z,47.17
2019-03-28T21:59:09.006Z,47.61
2019-03-28T22:01:34.909Z,48.10
2019-03-28T22:04:00.729Z,47.91
2019-03-28T22:06:26.725Z,48.15
2019-03-28T22:08:52.583Z,48.37
2019-03-28T22:11:18.817Z,48.53
2019-03-28T22:13:44.767Z,48.59
2019-03-28T22:16:10.645Z,48.65
2019-03-28T22:18:36.484Z,48.73
2019-03-28T22:21:02.468Z,48.33
2019-03-28T22:23:30.497Z,48.71
2019-03-28T22:25:56.488Z,48.29
2019-03-28T22:28:22.466Z,48.38
2019-03-28T22:30:48.638Z,48.86
2019-03-28T22:33:15.773Z,49.03
2019-03-28T22:35:41.812Z,49.28
2019-03-28T22:38:07.828Z,49.37
2019-03-28T22:40:33.822Z,49.46
2019-03-28T22:42:59.718Z,49.63
2019-03-28T22:45:25.801Z,49.78
2019-03-28T22:47:51.694Z,49.73
2019-03-28T22:50:17.529Z,49.68
2019-03-28T22:52:43.705Z,49.63
2019-03-28T22:55:10.274Z,49.52
2019-03-28T22:57:36.250Z,49.70
2019-03-28T23:00:05.973Z,49.54
2019-03-28T23:02:31.829Z,49.57
2019-03-28T23:04:57.763Z,49.50
2019-03-28T23:07:23.607Z,49.07
2019-03-28T23:09:49.822Z,49.28
2019-03-28T23:12:16.403Z,49.30
2019-03-28T23:14:42.368Z,49.28
2019-03-28T23:17:08.408Z,49.50
2019-03-28T23:19:34.316Z,49.51
2019-03-28T23:22:00.154Z,50.10
2019-03-28T23:24:26.099Z,49.90
2019-03-28T23:26:52.059Z,49.79
2019-03-28T23:29:18.084Z,49.70
2019-03-28T23:31:43.923Z,49.68
2019-03-28T23:34:09.833Z,50.04
2019-03-28T23:36:35.672Z,49.79
2019-03-28T23:39:01.845Z,49.90
2019-03-28T23:41:27.738Z,50.02
2019-03-28T23:43:53.651Z,49.79
2019-03-28T23:46:19.508Z,50.23
2019-03-28T23:48:45.605Z,50.39
2019-03-28T23:51:11.561Z,50.78
2019-03-28T23:53:37.621Z,50.83
2019-03-28T23:56:03.508Z,50.83
2019-03-28T23:58:29.447Z,50.80
